Terminal Aerodrome Forecast
Issued by NWS

Home | Current Version | Previous Version | Text Only | Print | Product List | Glossary On
Versions: 1 2 3 4 5 6 7 8 9 10 11 12
000
FTUS45 KLKN 241730
TAFEKO
TAF
KEKO 241730Z 2418/2518 24018G28KT P6SM -SHRA OVC020
     FM242300 27018G28KT P6SM BKN020
     FM250800 22010G20KT P6SM -SHRASN SCT012 OVC020=

USA.gov is the U.S. government's official web portal to all federal, state and local government web resources and services.